createdAt,value
2019-03-18T00:00:11.279Z,93.10
2019-03-18T00:05:14.926Z,92.70
2019-03-18T00:10:18.529Z,93.10
2019-03-18T00:15:22.486Z,93.10
2019-03-18T00:20:26.084Z,93.30
2019-03-18T00:25:29.740Z,93.80
2019-03-18T00:30:33.319Z,93.80
2019-03-18T00:35:36.901Z,93.10
2019-03-18T00:40:40.496Z,92.90
2019-03-18T00:45:44.165Z,93.20
2019-03-18T00:50:48.049Z,93.10
2019-03-18T00:55:53.282Z,92.90
2019-03-18T01:00:56.860Z,93.00
2019-03-18T01:06:00.454Z,92.80
2019-03-18T01:11:05.006Z,92.60
2019-03-18T01:16:08.588Z,92.40
2019-03-18T01:21:12.175Z,92.10
2019-03-18T01:26:15.766Z,91.80
2019-03-18T01:31:19.344Z,91.30
2019-03-18T01:36:22.944Z,91.00
2019-03-18T01:41:26.522Z,90.60
2019-03-18T01:46:30.110Z,91.00
2019-03-18T01:51:33.694Z,91.20
2019-03-18T01:56:37.283Z,90.10
2019-03-18T02:01:40.868Z,90.10
2019-03-18T02:06:44.564Z,87.90
2019-03-18T02:11:48.503Z,90.00
2019-03-18T02:16:52.100Z,91.10
2019-03-18T02:21:55.690Z,92.90
2019-03-18T02:26:59.294Z,93.10
2019-03-18T02:32:02.995Z,93.40
2019-03-18T02:37:06.591Z,93.80
2019-03-18T02:42:10.166Z,93.50
2019-03-18T02:47:14.140Z,94.00
2019-03-18T02:52:17.718Z,93.90
2019-03-18T02:57:21.383Z,93.50
2019-03-18T03:02:25.236Z,94.40
2019-03-18T03:07:29.805Z,94.80
2019-03-18T03:12:33.412Z,93.90
2019-03-18T03:17:37.300Z,93.20
2019-03-18T03:22:41.251Z,93.80
2019-03-18T03:27:45.191Z,94.00
2019-03-18T03:32:48.737Z,94.40
2019-03-18T03:37:52.331Z,94.10
2019-03-18T03:42:56.258Z,95.50
2019-03-18T03:47:59.909Z,93.80
2019-03-18T03:53:03.504Z,93.60
2019-03-18T03:58:07.412Z,94.00
2019-03-18T04:03:11.682Z,94.10
2019-03-18T04:08:15.385Z,94.40
2019-03-18T04:13:18.965Z,94.40
2019-03-18T04:18:22.650Z,95.10
2019-03-18T04:23:26.248Z,94.50
2019-03-18T04:28:30.193Z,94.50
2019-03-18T04:33:33.779Z,94.80
2019-03-18T04:38:37.839Z,94.20
2019-03-18T04:43:41.761Z,94.50
2019-03-18T04:48:45.350Z,94.50
2019-03-18T04:53:48.967Z,94.30
2019-03-18T04:58:52.553Z,94.10
2019-03-18T05:03:56.297Z,93.90
2019-03-18T05:08:59.951Z,94.20
2019-03-18T05:14:03.542Z,94.80
2019-03-18T05:19:07.125Z,94.80
2019-03-18T05:24:10.837Z,94.80
2019-03-18T05:29:14.424Z,94.60
2019-03-18T05:34:18.031Z,95.10
2019-03-18T05:39:21.708Z,94.70
2019-03-18T05:44:25.278Z,94.30
2019-03-18T05:49:28.880Z,94.00
2019-03-18T05:54:32.474Z,94.20
2019-03-18T05:59:36.396Z,93.90
2019-03-18T06:04:40.303Z,93.80
2019-03-18T06:09:44.272Z,93.60
2019-03-18T06:14:48.184Z,93.70
2019-03-18T06:19:51.776Z,93.50
2019-03-18T06:24:55.374Z,93.60
2019-03-18T06:29:58.971Z,93.70
2019-03-18T06:35:02.568Z,93.80
2019-03-18T06:40:10.972Z,93.60
2019-03-18T06:45:14.624Z,93.50
2019-03-18T06:50:18.292Z,93.50
2019-03-18T06:55:21.948Z,93.10
2019-03-18T07:00:25.528Z,91.90
2019-03-18T07:05:29.120Z,92.10
2019-03-18T07:10:33.004Z,91.60
2019-03-18T07:15:36.991Z,91.70
2019-03-18T07:20:40.576Z,91.80
2019-03-18T07:25:44.164Z,91.90
2019-03-18T07:30:48.135Z,91.10
2019-03-18T07:35:51.712Z,90.40
2019-03-18T07:40:55.376Z,90.30
2019-03-18T07:45:59.398Z,88.30
2019-03-18T07:51:02.972Z,85.40
2019-03-18T07:56:06.617Z,83.90
2019-03-18T08:01:10.208Z,84.30
2019-03-18T08:06:13.860Z,82.80
2019-03-18T08:11:17.437Z,81.60
2019-03-18T08:16:21.030Z,82.10
2019-03-18T08:21:24.606Z,80.90
2019-03-18T08:26:28.178Z,79.10
2019-03-18T08:31:32.233Z,80.00
2019-03-18T08:36:35.808Z,80.50
2019-03-18T08:41:39.417Z,81.70
2019-03-18T08:46:43.113Z,82.90
2019-03-18T08:51:46.716Z,81.00
2019-03-18T08:56:50.352Z,81.60
2019-03-18T09:01:53.949Z,81.50
2019-03-18T09:06:57.532Z,80.60
2019-03-18T09:12:01.122Z,82.40
2019-03-18T09:17:04.991Z,81.80
2019-03-18T09:22:08.634Z,80.00
2019-03-18T09:27:12.218Z,79.80
2019-03-18T09:32:15.802Z,81.30
2019-03-18T09:37:19.713Z,78.70
2019-03-18T09:42:23.738Z,80.20
2019-03-18T09:47:27.654Z,78.70
2019-03-18T09:52:31.235Z,75.80
2019-03-18T09:57:35.086Z,72.50
2019-03-18T10:02:38.676Z,73.20
2019-03-18T10:07:42.262Z,71.90
2019-03-18T10:12:45.930Z,73.70
2019-03-18T10:17:49.914Z,73.30
2019-03-18T10:22:53.920Z,75.00
2019-03-18T10:27:57.825Z,74.40
2019-03-18T10:33:01.413Z,74.60
2019-03-18T10:38:05.077Z,74.40
2019-03-18T10:43:08.631Z,73.20
2019-03-18T10:48:12.263Z,69.80
2019-03-18T10:53:15.866Z,70.80
2019-03-18T10:58:19.792Z,71.00
2019-03-18T11:03:23.380Z,68.00
2019-03-18T11:08:26.963Z,68.30
2019-03-18T11:13:30.608Z,66.50
2019-03-18T11:18:34.187Z,66.30
2019-03-18T11:23:38.106Z,67.20
2019-03-18T11:28:41.691Z,68.70
2019-03-18T11:33:45.283Z,72.90
2019-03-18T11:38:48.869Z,69.90
2019-03-18T11:43:52.597Z,72.40
2019-03-18T11:48:56.176Z,68.00
2019-03-18T11:53:59.990Z,66.90
2019-03-18T11:59:03.640Z,67.70
2019-03-18T12:04:07.283Z,68.70
2019-03-18T12:09:10.875Z,66.50
2019-03-18T12:14:14.904Z,63.50
2019-03-18T12:19:18.907Z,62.00
2019-03-18T12:24:22.563Z,60.10
2019-03-18T12:29:26.267Z,62.30
2019-03-18T12:34:30.281Z,65.80
2019-03-18T12:39:33.869Z,62.90
2019-03-18T12:44:37.804Z,61.90
2019-03-18T12:49:41.456Z,59.80
2019-03-18T12:54:45.132Z,59.20
2019-03-18T12:59:48.727Z,59.30
2019-03-18T13:04:52.313Z,61.40
2019-03-18T13:09:55.978Z,56.90
2019-03-18T13:14:59.970Z,56.10
2019-03-18T13:20:05.014Z,59.50
2019-03-18T13:25:11.297Z,59.90
2019-03-18T13:30:18.606Z,59.30
2019-03-18T13:35:22.425Z,59.70
2019-03-18T13:40:26.113Z,58.50
2019-03-18T13:45:29.697Z,56.30
2019-03-18T13:50:33.697Z,54.40
2019-03-18T13:55:37.558Z,51.40
2019-03-18T14:00:41.579Z,47.30
2019-03-18T14:05:45.520Z,47.50
2019-03-18T14:10:49.230Z,45.40
2019-03-18T14:15:53.165Z,45.00
2019-03-18T14:20:56.818Z,46.50
2019-03-18T14:26:00.401Z,46.90
2019-03-18T14:31:03.999Z,46.50
2019-03-18T14:36:08.074Z,46.50
2019-03-18T14:41:11.654Z,48.10
2019-03-18T14:46:15.244Z,51.80
2019-03-18T14:51:18.904Z,48.90
2019-03-18T14:56:22.580Z,46.20
2019-03-18T15:01:26.827Z,47.00
2019-03-18T15:06:32.773Z,48.30
2019-03-18T15:11:37.776Z,49.20
2019-03-18T15:16:41.961Z,47.40
2019-03-18T15:21:57.842Z,45.60
2019-03-18T15:26:54.325Z,46.80
2019-03-18T15:31:58.048Z,47.70
2019-03-18T15:37:01.846Z,48.70
2019-03-18T15:42:06.051Z,48.30
2019-03-18T15:47:10.133Z,48.50
2019-03-18T15:52:14.781Z,48.80
2019-03-18T15:57:29.248Z,47.60
2019-03-18T16:02:23.712Z,49.10
2019-03-18T16:07:27.766Z,50.00
2019-03-18T16:12:31.724Z,51.40
2019-03-18T16:17:35.376Z,57.60
2019-03-18T16:22:38.966Z,61.00
2019-03-18T16:27:42.620Z,60.90
2019-03-18T16:32:46.199Z,61.70
2019-03-18T16:37:49.786Z,62.70
2019-03-18T16:42:53.395Z,62.10
2019-03-18T16:47:57.058Z,58.90
2019-03-18T16:53:00.785Z,58.70
2019-03-18T16:58:04.383Z,58.40
2019-03-18T17:03:08.048Z,58.20
2019-03-18T17:08:11.659Z,57.70
2019-03-18T17:13:15.372Z,57.80
2019-03-18T17:18:19.036Z,57.20
2019-03-18T17:23:22.618Z,57.70
2019-03-18T17:28:26.212Z,57.80
2019-03-18T17:33:30.843Z,58.80
2019-03-18T17:38:34.363Z,59.50
2019-03-18T17:43:37.950Z,60.00
2019-03-18T17:48:41.596Z,60.00
2019-03-18T17:53:45.357Z,60.20
2019-03-18T17:58:49.521Z,60.60
2019-03-18T18:03:53.452Z,60.60
2019-03-18T18:08:57.488Z,61.30
2019-03-18T18:14:01.153Z,64.20
2019-03-18T18:19:04.926Z,65.80
2019-03-18T18:24:08.500Z,65.90
2019-03-18T18:29:12.084Z,67.80
2019-03-18T18:34:15.748Z,69.80
2019-03-18T18:39:19.767Z,72.80
2019-03-18T18:44:23.347Z,74.30
2019-03-18T18:49:26.937Z,73.80
2019-03-18T18:54:30.985Z,74.30
2019-03-18T18:59:34.590Z,73.90
2019-03-18T19:04:39.711Z,74.70
2019-03-18T19:09:43.280Z,76.10
2019-03-18T19:14:46.873Z,77.00
2019-03-18T19:19:50.512Z,78.40
2019-03-18T19:24:54.122Z,78.70
2019-03-18T19:29:57.837Z,77.90
2019-03-18T19:35:01.859Z,76.40
2019-03-18T19:40:08.501Z,74.70
2019-03-18T19:45:13.734Z,76.60
2019-03-18T19:50:25.548Z,77.60
2019-03-18T19:55:29.155Z,78.90
2019-03-18T20:00:32.802Z,79.60
2019-03-18T20:05:36.452Z,80.10
2019-03-18T20:10:40.101Z,80.70
2019-03-18T20:15:43.848Z,80.60
2019-03-18T20:20:47.481Z,81.70
2019-03-18T20:25:55.168Z,83.10
2019-03-18T20:30:58.952Z,83.80
2019-03-18T20:36:02.576Z,82.60
2019-03-18T20:41:06.476Z,83.20
2019-03-18T20:46:10.161Z,83.20
2019-03-18T20:51:34.342Z,83.20
2019-03-18T20:56:38.220Z,82.90
2019-03-18T21:01:42.189Z,84.50
2019-03-18T21:06:46.022Z,84.50
2019-03-18T21:11:49.657Z,83.90
2019-03-18T21:16:53.792Z,84.90
2019-03-18T21:21:57.361Z,84.30
2019-03-18T21:27:01.361Z,83.90
2019-03-18T21:32:05.186Z,84.40
2019-03-18T21:37:08.849Z,84.40
2019-03-18T21:42:12.834Z,83.30
2019-03-18T21:47:16.421Z,82.80
2019-03-18T21:52:20.073Z,82.60
2019-03-18T21:57:23.726Z,82.00
2019-03-18T22:02:27.319Z,82.10
2019-03-18T22:07:30.910Z,82.40
2019-03-18T22:12:34.486Z,83.50
2019-03-18T22:17:38.069Z,83.50
2019-03-18T22:22:41.808Z,83.60
2019-03-18T22:27:45.615Z,83.60
2019-03-18T22:32:49.271Z,82.70
2019-03-18T22:37:53.333Z,82.50
2019-03-18T22:42:56.884Z,83.60
2019-03-18T22:48:00.477Z,84.10
2019-03-18T22:53:04.214Z,82.60
2019-03-18T22:58:07.796Z,84.50
2019-03-18T23:03:11.465Z,83.60
2019-03-18T23:08:15.117Z,83.20
2019-03-18T23:13:18.713Z,83.60
2019-03-18T23:18:22.287Z,83.60
2019-03-18T23:23:25.874Z,84.50
2019-03-18T23:28:29.531Z,84.40
2019-03-18T23:33:33.117Z,84.70
2019-03-18T23:38:36.698Z,84.00
2019-03-18T23:43:40.679Z,86.00
2019-03-18T23:48:45.594Z,86.70
2019-03-18T23:53:49.189Z,87.00
2019-03-18T23:58:52.853Z,86.20
